sensor_id;sensor_type;location;lat;lon;timestamp;P1;durP1;ratioP1;P2;durP2;ratioP2
9150;SDS011;4610;50.006;7.490;2022-09-24T00:00:30;1.90;;;1.70;;
9150;SDS011;4610;50.006;7.490;2022-09-24T00:02:58;4.37;;;1.87;;
9150;SDS011;4610;50.006;7.490;2022-09-24T00:05:24;2.07;;;1.70;;
9150;SDS011;4610;50.006;7.490;2022-09-24T00:07:51;5.37;;;1.80;;
9150;SDS011;4610;50.006;7.490;2022-09-24T00:10:18;6.47;;;1.90;;
9150;SDS011;4610;50.006;7.490;2022-09-24T00:12:46;5.63;;;1.77;;
9150;SDS011;4610;50.006;7.490;2022-09-24T00:15:13;3.30;;;1.70;;
9150;SDS011;4610;50.006;7.490;2022-09-24T00:17:39;7.03;;;1.77;;
9150;SDS011;4610;50.006;7.490;2022-09-24T00:20:06;9.27;;;1.70;;
9150;SDS011;4610;50.006;7.490;2022-09-24T00:22:33;1.70;;;1.60;;
9150;SDS011;4610;50.006;7.490;2022-09-24T00:25:00;4.07;;;1.60;;
9150;SDS011;4610;50.006;7.490;2022-09-24T00:27:45;3.87;;;1.90;;
9150;SDS011;4610;50.006;7.490;2022-09-24T00:30:13;2.53;;;1.90;;
9150;SDS011;4610;50.006;7.490;2022-09-24T00:32:39;5.00;;;1.80;;
9150;SDS011;4610;50.006;7.490;2022-09-24T00:35:06;1.77;;;1.60;;
9150;SDS011;4610;50.006;7.490;2022-09-24T00:37:33;2.83;;;1.80;;
9150;SDS011;4610;50.006;7.490;2022-09-24T00:40:00;5.87;;;2.23;;
9150;SDS011;4610;50.006;7.490;2022-09-24T00:42:27;3.43;;;1.60;;
9150;SDS011;4610;50.006;7.490;2022-09-24T00:44:57;1.97;;;1.63;;
9150;SDS011;4610;50.006;7.490;2022-09-24T00:47:26;2.63;;;2.03;;
9150;SDS011;4610;50.006;7.490;2022-09-24T00:50:02;1.83;;;1.67;;
9150;SDS011;4610;50.006;7.490;2022-09-24T00:52:33;3.93;;;1.70;;
9150;SDS011;4610;50.006;7.490;2022-09-24T00:55:03;2.63;;;1.60;;
9150;SDS011;4610;50.006;7.490;2022-09-24T00:57:31;2.73;;;1.70;;
9150;SDS011;4610;50.006;7.490;2022-09-24T01:00:00;1.83;;;1.70;;
9150;SDS011;4610;50.006;7.490;2022-09-24T01:02:28;2.77;;;1.93;;
9150;SDS011;4610;50.006;7.490;2022-09-24T01:04:56;8.40;;;2.20;;
9150;SDS011;4610;50.006;7.490;2022-09-24T01:07:23;3.37;;;1.80;;
9150;SDS011;4610;50.006;7.490;2022-09-24T01:09:50;3.77;;;1.70;;
9150;SDS011;4610;50.006;7.490;2022-09-24T01:12:18;8.63;;;1.80;;
9150;SDS011;4610;50.006;7.490;2022-09-24T01:14:56;2.50;;;1.70;;
9150;SDS011;4610;50.006;7.490;2022-09-24T01:17:36;4.23;;;1.70;;
9150;SDS011;4610;50.006;7.490;2022-09-24T01:20:29;1.70;;;1.60;;
9150;SDS011;4610;50.006;7.490;2022-09-24T01:23:21;3.47;;;1.90;;
9150;SDS011;4610;50.006;7.490;2022-09-24T01:26:14;2.97;;;1.40;;
9150;SDS011;4610;50.006;7.490;2022-09-24T01:29:00;2.63;;;1.63;;
9150;SDS011;4610;50.006;7.490;2022-09-24T01:31:37;3.63;;;1.73;;
9150;SDS011;4610;50.006;7.490;2022-09-24T01:34:10;1.60;;;1.33;;
9150;SDS011;4610;50.006;7.490;2022-09-24T01:36:43;1.50;;;1.40;;
9150;SDS011;4610;50.006;7.490;2022-09-24T01:39:11;5.40;;;1.77;;
9150;SDS011;4610;50.006;7.490;2022-09-24T01:41:40;1.70;;;1.60;;
9150;SDS011;4610;50.006;7.490;2022-09-24T01:44:08;1.87;;;1.70;;
9150;SDS011;4610;50.006;7.490;2022-09-24T01:46:38;2.93;;;1.90;;
9150;SDS011;4610;50.006;7.490;2022-09-24T01:49:06;3.43;;;2.03;;
9150;SDS011;4610;50.006;7.490;2022-09-24T01:51:34;3.10;;;1.80;;
9150;SDS011;4610;50.006;7.490;2022-09-24T01:54:08;3.07;;;1.67;;
9150;SDS011;4610;50.006;7.490;2022-09-24T01:56:44;7.43;;;2.20;;
9150;SDS011;4610;50.006;7.490;2022-09-24T01:59:15;4.03;;;1.93;;
9150;SDS011;4610;50.006;7.490;2022-09-24T02:01:54;2.43;;;1.70;;
9150;SDS011;4610;50.006;7.490;2022-09-24T02:04:26;2.23;;;1.40;;
9150;SDS011;4610;50.006;7.490;2022-09-24T02:06:55;2.23;;;2.03;;
9150;SDS011;4610;50.006;7.490;2022-09-24T02:09:29;3.17;;;2.13;;
9150;SDS011;4610;50.006;7.490;2022-09-24T02:12:01;5.20;;;1.70;;
9150;SDS011;4610;50.006;7.490;2022-09-24T02:14:35;1.80;;;1.60;;
9150;SDS011;4610;50.006;7.490;2022-09-24T02:17:06;2.13;;;1.80;;
9150;SDS011;4610;50.006;7.490;2022-09-24T02:19:36;2.20;;;1.70;;
9150;SDS011;4610;50.006;7.490;2022-09-24T02:22:06;2.23;;;1.70;;
9150;SDS011;4610;50.006;7.490;2022-09-24T02:24:36;2.03;;;1.57;;
9150;SDS011;4610;50.006;7.490;2022-09-24T02:27:10;4.93;;;1.70;;
9150;SDS011;4610;50.006;7.490;2022-09-24T02:29:37;2.80;;;1.80;;
9150;SDS011;4610;50.006;7.490;2022-09-24T02:32:04;2.80;;;1.50;;
9150;SDS011;4610;50.006;7.490;2022-09-24T02:34:37;2.00;;;1.67;;
9150;SDS011;4610;50.006;7.490;2022-09-24T02:37:07;2.00;;;1.80;;
9150;SDS011;4610;50.006;7.490;2022-09-24T02:39:35;7.87;;;2.00;;
9150;SDS011;4610;50.006;7.490;2022-09-24T02:42:02;5.33;;;1.63;;
9150;SDS011;4610;50.006;7.490;2022-09-24T02:44:30;3.50;;;2.00;;
9150;SDS011;4610;50.006;7.490;2022-09-24T02:46:57;1.87;;;1.77;;
9150;SDS011;4610;50.006;7.490;2022-09-24T02:49:26;1.90;;;1.70;;
9150;SDS011;4610;50.006;7.490;2022-09-24T02:51:53;4.30;;;2.07;;
9150;SDS011;4610;50.006;7.490;2022-09-24T02:54:20;2.37;;;1.87;;
9150;SDS011;4610;50.006;7.490;2022-09-24T02:56:48;2.20;;;1.70;;
9150;SDS011;4610;50.006;7.490;2022-09-24T02:59:14;4.93;;;1.97;;
9150;SDS011;4610;50.006;7.490;2022-09-24T03:01:41;4.53;;;2.20;;
9150;SDS011;4610;50.006;7.490;2022-09-24T03:04:08;3.67;;;1.87;;
9150;SDS011;4610;50.006;7.490;2022-09-24T03:06:36;2.10;;;1.90;;
9150;SDS011;4610;50.006;7.490;2022-09-24T03:09:03;3.97;;;2.00;;
9150;SDS011;4610;50.006;7.490;2022-09-24T03:11:30;2.93;;;2.03;;
9150;SDS011;4610;50.006;7.490;2022-09-24T03:13:59;3.57;;;2.10;;
9150;SDS011;4610;50.006;7.490;2022-09-24T03:16:29;6.20;;;2.10;;
9150;SDS011;4610;50.006;7.490;2022-09-24T03:18:55;3.37;;;1.80;;
9150;SDS011;4610;50.006;7.490;2022-09-24T03:21:22;3.67;;;1.87;;
9150;SDS011;4610;50.006;7.490;2022-09-24T03:23:50;7.53;;;2.10;;
9150;SDS011;4610;50.006;7.490;2022-09-24T03:26:17;2.57;;;1.80;;
9150;SDS011;4610;50.006;7.490;2022-09-24T03:28:44;3.70;;;1.97;;
9150;SDS011;4610;50.006;7.490;2022-09-24T03:31:11;2.70;;;1.60;;
9150;SDS011;4610;50.006;7.490;2022-09-24T03:33:37;2.70;;;1.90;;
9150;SDS011;4610;50.006;7.490;2022-09-24T03:36:07;3.83;;;2.10;;
9150;SDS011;4610;50.006;7.490;2022-09-24T03:38:35;8.97;;;2.33;;
9150;SDS011;4610;50.006;7.490;2022-09-24T03:41:04;5.17;;;2.10;;
9150;SDS011;4610;50.006;7.490;2022-09-24T03:43:32;2.50;;;2.00;;
9150;SDS011;4610;50.006;7.490;2022-09-24T03:45:59;4.30;;;2.10;;
9150;SDS011;4610;50.006;7.490;2022-09-24T03:48:26;2.47;;;1.90;;
9150;SDS011;4610;50.006;7.490;2022-09-24T03:50:54;2.87;;;1.73;;
9150;SDS011;4610;50.006;7.490;2022-09-24T03:53:21;3.50;;;2.03;;
9150;SDS011;4610;50.006;7.490;2022-09-24T03:55:51;3.53;;;2.17;;
9150;SDS011;4610;50.006;7.490;2022-09-24T03:58:21;3.10;;;2.03;;
9150;SDS011;4610;50.006;7.490;2022-09-24T04:00:49;1.80;;;1.50;;
9150;SDS011;4610;50.006;7.490;2022-09-24T04:03:16;2.63;;;1.97;;
9150;SDS011;4610;50.006;7.490;2022-09-24T04:05:43;2.37;;;1.90;;
9150;SDS011;4610;50.006;7.490;2022-09-24T04:08:10;2.77;;;2.13;;
9150;SDS011;4610;50.006;7.490;2022-09-24T04:10:36;4.43;;;2.07;;
9150;SDS011;4610;50.006;7.490;2022-09-24T04:13:03;5.13;;;2.03;;
9150;SDS011;4610;50.006;7.490;2022-09-24T04:15:31;2.13;;;1.77;;
9150;SDS011;4610;50.006;7.490;2022-09-24T04:17:58;3.67;;;1.93;;
9150;SDS011;4610;50.006;7.490;2022-09-24T04:20:26;2.90;;;2.20;;
9150;SDS011;4610;50.006;7.490;2022-09-24T04:22:56;2.83;;;1.70;;
9150;SDS011;4610;50.006;7.490;2022-09-24T04:25:24;3.30;;;2.17;;
9150;SDS011;4610;50.006;7.490;2022-09-24T04:27:53;2.20;;;1.77;;
9150;SDS011;4610;50.006;7.490;2022-09-24T04:30:21;2.00;;;1.70;;
9150;SDS011;4610;50.006;7.490;2022-09-24T04:32:49;4.20;;;2.03;;
9150;SDS011;4610;50.006;7.490;2022-09-24T04:35:17;3.23;;;2.13;;
9150;SDS011;4610;50.006;7.490;2022-09-24T04:37:44;4.60;;;2.00;;
9150;SDS011;4610;50.006;7.490;2022-09-24T04:40:11;2.30;;;2.07;;
9150;SDS011;4610;50.006;7.490;2022-09-24T04:42:38;2.20;;;2.00;;
9150;SDS011;4610;50.006;7.490;2022-09-24T04:45:06;2.27;;;1.80;;
9150;SDS011;4610;50.006;7.490;2022-09-24T04:47:34;2.90;;;1.80;;
9150;SDS011;4610;50.006;7.490;2022-09-24T04:50:03;2.67;;;2.00;;
9150;SDS011;4610;50.006;7.490;2022-09-24T04:52:30;2.37;;;1.80;;
9150;SDS011;4610;50.006;7.490;2022-09-24T04:54:57;2.53;;;1.80;;
9150;SDS011;4610;50.006;7.490;2022-09-24T04:57:24;3.00;;;2.00;;
9150;SDS011;4610;50.006;7.490;2022-09-24T04:59:52;3.23;;;2.10;;
9150;SDS011;4610;50.006;7.490;2022-09-24T05:02:19;3.30;;;2.23;;
9150;SDS011;4610;50.006;7.490;2022-09-24T05:04:48;7.70;;;2.30;;
9150;SDS011;4610;50.006;7.490;2022-09-24T05:07:16;4.57;;;1.80;;
9150;SDS011;4610;50.006;7.490;2022-09-24T05:09:42;2.80;;;2.10;;
9150;SDS011;4610;50.006;7.490;2022-09-24T05:12:09;2.70;;;2.00;;
9150;SDS011;4610;50.006;7.490;2022-09-24T05:14:36;4.20;;;2.10;;
9150;SDS011;4610;50.006;7.490;2022-09-24T05:17:03;2.30;;;2.00;;
9150;SDS011;4610;50.006;7.490;2022-09-24T05:19:29;4.20;;;2.90;;
9150;SDS011;4610;50.006;7.490;2022-09-24T05:21:57;3.87;;;1.97;;
9150;SDS011;4610;50.006;7.490;2022-09-24T05:24:25;4.27;;;2.23;;
9150;SDS011;4610;50.006;7.490;2022-09-24T05:26:51;3.53;;;2.27;;
9150;SDS011;4610;50.006;7.490;2022-09-24T05:29:36;3.27;;;2.03;;
9150;SDS011;4610;50.006;7.490;2022-09-24T05:32:04;6.73;;;2.13;;
9150;SDS011;4610;50.006;7.490;2022-09-24T05:34:32;2.43;;;1.90;;
9150;SDS011;4610;50.006;7.490;2022-09-24T05:37:00;2.20;;;2.00;;
9150;SDS011;4610;50.006;7.490;2022-09-24T05:39:28;2.83;;;2.33;;
9150;SDS011;4610;50.006;7.490;2022-09-24T05:41:56;2.40;;;2.17;;
9150;SDS011;4610;50.006;7.490;2022-09-24T05:44:24;3.03;;;2.10;;
9150;SDS011;4610;50.006;7.490;2022-09-24T05:46:51;1.97;;;1.80;;
9150;SDS011;4610;50.006;7.490;2022-09-24T05:49:18;2.17;;;1.90;;
9150;SDS011;4610;50.006;7.490;2022-09-24T05:51:46;2.80;;;2.10;;
9150;SDS011;4610;50.006;7.490;2022-09-24T05:54:13;7.93;;;3.20;;
9150;SDS011;4610;50.006;7.490;2022-09-24T05:56:41;3.90;;;3.47;;
9150;SDS011;4610;50.006;7.490;2022-09-24T05:59:09;13.77;;;5.70;;
9150;SDS011;4610;50.006;7.490;2022-09-24T06:01:35;5.13;;;4.50;;
9150;SDS011;4610;50.006;7.490;2022-09-24T06:04:02;11.73;;;7.03;;
9150;SDS011;4610;50.006;7.490;2022-09-24T06:06:29;7.13;;;4.73;;
9150;SDS011;4610;50.006;7.490;2022-09-24T06:08:56;6.13;;;3.40;;
9150;SDS011;4610;50.006;7.490;2022-09-24T06:11:23;4.43;;;2.73;;
9150;SDS011;4610;50.006;7.490;2022-09-24T06:13:51;3.10;;;2.30;;
9150;SDS011;4610;50.006;7.490;2022-09-24T06:16:17;3.43;;;2.70;;
9150;SDS011;4610;50.006;7.490;2022-09-24T06:18:44;3.90;;;2.43;;
9150;SDS011;4610;50.006;7.490;2022-09-24T06:21:13;3.00;;;2.47;;
9150;SDS011;4610;50.006;7.490;2022-09-24T06:23:41;3.37;;;2.50;;
9150;SDS011;4610;50.006;7.490;2022-09-24T06:26:10;2.83;;;2.37;;
9150;SDS011;4610;50.006;7.490;2022-09-24T06:28:38;7.13;;;2.70;;
9150;SDS011;4610;50.006;7.490;2022-09-24T06:31:07;2.83;;;2.47;;
9150;SDS011;4610;50.006;7.490;2022-09-24T06:33:36;5.07;;;2.57;;
9150;SDS011;4610;50.006;7.490;2022-09-24T06:36:04;3.17;;;2.67;;
9150;SDS011;4610;50.006;7.490;2022-09-24T06:38:31;7.10;;;4.70;;
9150;SDS011;4610;50.006;7.490;2022-09-24T06:40:59;4.70;;;3.20;;
9150;SDS011;4610;50.006;7.490;2022-09-24T06:43:27;6.50;;;2.37;;
9150;SDS011;4610;50.006;7.490;2022-09-24T06:45:55;5.23;;;2.50;;
9150;SDS011;4610;50.006;7.490;2022-09-24T06:48:24;5.30;;;3.70;;
9150;SDS011;4610;50.006;7.490;2022-09-24T06:50:52;4.50;;;2.47;;
9150;SDS011;4610;50.006;7.490;2022-09-24T06:53:20;3.67;;;2.30;;
9150;SDS011;4610;50.006;7.490;2022-09-24T06:55:47;2.83;;;1.93;;
9150;SDS011;4610;50.006;7.490;2022-09-24T06:58:14;4.30;;;2.97;;
9150;SDS011;4610;50.006;7.490;2022-09-24T07:00:48;3.07;;;2.17;;
9150;SDS011;4610;50.006;7.490;2022-09-24T07:03:17;3.93;;;2.40;;
9150;SDS011;4610;50.006;7.490;2022-09-24T07:05:45;3.57;;;2.30;;
9150;SDS011;4610;50.006;7.490;2022-09-24T07:08:12;3.87;;;2.37;;
9150;SDS011;4610;50.006;7.490;2022-09-24T07:10:40;3.93;;;2.27;;
9150;SDS011;4610;50.006;7.490;2022-09-24T07:13:08;3.97;;;2.10;;
9150;SDS011;4610;50.006;7.490;2022-09-24T07:15:34;2.60;;;2.30;;
9150;SDS011;4610;50.006;7.490;2022-09-24T07:18:01;4.13;;;3.00;;
9150;SDS011;4610;50.006;7.490;2022-09-24T07:20:28;3.73;;;2.97;;
9150;SDS011;4610;50.006;7.490;2022-09-24T07:22:58;4.07;;;3.10;;
9150;SDS011;4610;50.006;7.490;2022-09-24T07:25:25;3.37;;;2.93;;
9150;SDS011;4610;50.006;7.490;2022-09-24T07:27:52;5.10;;;3.17;;
9150;SDS011;4610;50.006;7.490;2022-09-24T07:30:18;3.43;;;2.70;;
9150;SDS011;4610;50.006;7.490;2022-09-24T07:32:45;3.10;;;2.30;;
9150;SDS011;4610;50.006;7.490;2022-09-24T07:35:14;3.10;;;2.80;;
9150;SDS011;4610;50.006;7.490;2022-09-24T07:37:42;9.50;;;2.67;;
9150;SDS011;4610;50.006;7.490;2022-09-24T07:40:10;3.47;;;2.50;;
9150;SDS011;4610;50.006;7.490;2022-09-24T07:42:37;4.10;;;2.87;;
9150;SDS011;4610;50.006;7.490;2022-09-24T07:45:10;6.07;;;3.10;;
9150;SDS011;4610;50.006;7.490;2022-09-24T07:47:37;5.13;;;2.30;;
9150;SDS011;4610;50.006;7.490;2022-09-24T07:50:04;4.30;;;2.70;;
9150;SDS011;4610;50.006;7.490;2022-09-24T07:52:31;4.90;;;2.80;;
9150;SDS011;4610;50.006;7.490;2022-09-24T07:54:58;5.07;;;2.60;;
9150;SDS011;4610;50.006;7.490;2022-09-24T07:57:26;3.37;;;2.50;;
9150;SDS011;4610;50.006;7.490;2022-09-24T07:59:53;2.53;;;2.33;;
9150;SDS011;4610;50.006;7.490;2022-09-24T08:02:20;5.20;;;2.80;;
9150;SDS011;4610;50.006;7.490;2022-09-24T08:04:46;3.53;;;2.60;;
9150;SDS011;4610;50.006;7.490;2022-09-24T08:07:13;4.37;;;3.00;;
9150;SDS011;4610;50.006;7.490;2022-09-24T08:09:40;3.47;;;2.90;;
9150;SDS011;4610;50.006;7.490;2022-09-24T08:12:07;6.90;;;3.30;;
9150;SDS011;4610;50.006;7.490;2022-09-24T08:14:36;5.17;;;3.07;;
9150;SDS011;4610;50.006;7.490;2022-09-24T08:17:03;4.97;;;2.80;;
9150;SDS011;4610;50.006;7.490;2022-09-24T08:19:30;15.27;;;4.33;;
9150;SDS011;4610;50.006;7.490;2022-09-24T08:21:57;6.70;;;3.90;;
9150;SDS011;4610;50.006;7.490;2022-09-24T08:24:23;13.23;;;4.60;;
9150;SDS011;4610;50.006;7.490;2022-09-24T08:26:51;7.70;;;4.17;;
9150;SDS011;4610;50.006;7.490;2022-09-24T08:29:18;4.53;;;3.17;;
9150;SDS011;4610;50.006;7.490;2022-09-24T08:31:46;5.50;;;2.60;;
9150;SDS011;4610;50.006;7.490;2022-09-24T08:34:13;3.47;;;2.70;;
9150;SDS011;4610;50.006;7.490;2022-09-24T08:36:40;4.00;;;2.77;;
9150;SDS011;4610;50.006;7.490;2022-09-24T08:39:06;4.90;;;2.40;;
9150;SDS011;4610;50.006;7.490;2022-09-24T08:44:22;3.47;;;2.50;;
9150;SDS011;4610;50.006;7.490;2022-09-24T08:47:14;4.10;;;2.53;;
9150;SDS011;4610;50.006;7.490;2022-09-24T08:49:53;5.37;;;2.73;;
9150;SDS011;4610;50.006;7.490;2022-09-24T08:52:38;2.40;;;2.00;;
9150;SDS011;4610;50.006;7.490;2022-09-24T08:55:16;3.43;;;2.80;;
9150;SDS011;4610;50.006;7.490;2022-09-24T08:57:49;4.57;;;2.40;;
9150;SDS011;4610;50.006;7.490;2022-09-24T09:00:24;6.27;;;3.70;;
9150;SDS011;4610;50.006;7.490;2022-09-24T09:02:56;4.90;;;3.30;;
9150;SDS011;4610;50.006;7.490;2022-09-24T09:05:33;6.37;;;4.03;;
9150;SDS011;4610;50.006;7.490;2022-09-24T09:08:15;7.33;;;4.07;;
9150;SDS011;4610;50.006;7.490;2022-09-24T09:10:47;7.50;;;4.27;;
9150;SDS011;4610;50.006;7.490;2022-09-24T09:13:20;5.17;;;3.20;;
9150;SDS011;4610;50.006;7.490;2022-09-24T09:15:53;13.03;;;3.10;;
9150;SDS011;4610;50.006;7.490;2022-09-24T09:18:32;9.70;;;3.33;;
9150;SDS011;4610;50.006;7.490;2022-09-24T09:21:04;4.43;;;2.80;;
9150;SDS011;4610;50.006;7.490;2022-09-24T09:23:41;4.47;;;3.17;;
9150;SDS011;4610;50.006;7.490;2022-09-24T09:26:12;5.80;;;3.47;;
9150;SDS011;4610;50.006;7.490;2022-09-24T09:28:39;11.37;;;3.90;;
9150;SDS011;4610;50.006;7.490;2022-09-24T09:31:06;5.10;;;3.30;;
9150;SDS011;4610;50.006;7.490;2022-09-24T09:33:49;7.40;;;3.63;;
9150;SDS011;4610;50.006;7.490;2022-09-24T09:36:33;6.23;;;3.13;;
9150;SDS011;4610;50.006;7.490;2022-09-24T09:39:15;5.97;;;3.10;;
9150;SDS011;4610;50.006;7.490;2022-09-24T09:41:54;7.77;;;2.30;;
9150;SDS011;4610;50.006;7.490;2022-09-24T09:44:26;6.30;;;3.00;;
9150;SDS011;4610;50.006;7.490;2022-09-24T09:46:57;6.43;;;3.10;;
9150;SDS011;4610;50.006;7.490;2022-09-24T09:49:31;7.40;;;3.17;;
9150;SDS011;4610;50.006;7.490;2022-09-24T09:52:03;4.47;;;2.97;;
9150;SDS011;4610;50.006;7.490;2022-09-24T09:54:38;7.70;;;2.90;;
9150;SDS011;4610;50.006;7.490;2022-09-24T09:57:08;4.30;;;2.67;;
9150;SDS011;4610;50.006;7.490;2022-09-24T09:59:40;8.83;;;2.93;;
9150;SDS011;4610;50.006;7.490;2022-09-24T10:02:13;4.00;;;2.73;;
9150;SDS011;4610;50.006;7.490;2022-09-24T10:04:50;5.70;;;2.67;;
9150;SDS011;4610;50.006;7.490;2022-09-24T10:07:18;5.57;;;3.00;;
9150;SDS011;4610;50.006;7.490;2022-09-24T10:09:45;6.40;;;2.53;;
9150;SDS011;4610;50.006;7.490;2022-09-24T10:12:14;6.30;;;2.80;;
9150;SDS011;4610;50.006;7.490;2022-09-24T10:14:42;5.50;;;2.67;;
9150;SDS011;4610;50.006;7.490;2022-09-24T10:17:10;5.13;;;2.70;;
9150;SDS011;4610;50.006;7.490;2022-09-24T10:19:39;3.93;;;2.33;;
9150;SDS011;4610;50.006;7.490;2022-09-24T10:22:13;6.73;;;2.90;;
9150;SDS011;4610;50.006;7.490;2022-09-24T10:24:45;5.67;;;2.57;;
9150;SDS011;4610;50.006;7.490;2022-09-24T10:27:12;3.37;;;2.50;;
9150;SDS011;4610;50.006;7.490;2022-09-24T10:29:46;5.47;;;3.23;;
9150;SDS011;4610;50.006;7.490;2022-09-24T10:32:31;6.30;;;2.70;;
9150;SDS011;4610;50.006;7.490;2022-09-24T10:34:58;3.70;;;2.60;;
9150;SDS011;4610;50.006;7.490;2022-09-24T10:37:27;4.00;;;3.00;;
9150;SDS011;4610;50.006;7.490;2022-09-24T10:39:58;7.23;;;2.83;;
9150;SDS011;4610;50.006;7.490;2022-09-24T10:42:26;6.83;;;2.50;;
9150;SDS011;4610;50.006;7.490;2022-09-24T10:44:54;3.83;;;2.33;;
9150;SDS011;4610;50.006;7.490;2022-09-24T10:47:25;5.07;;;2.20;;
9150;SDS011;4610;50.006;7.490;2022-09-24T10:50:00;4.93;;;2.07;;
9150;SDS011;4610;50.006;7.490;2022-09-24T10:52:42;10.30;;;2.20;;
9150;SDS011;4610;50.006;7.490;2022-09-24T10:55:18;2.83;;;1.73;;
9150;SDS011;4610;50.006;7.490;2022-09-24T10:57:58;3.90;;;1.83;;
9150;SDS011;4610;50.006;7.490;2022-09-24T11:00:31;4.37;;;1.90;;
9150;SDS011;4610;50.006;7.490;2022-09-24T11:06:11;3.50;;;2.17;;
9150;SDS011;4610;50.006;7.490;2022-09-24T11:08:56;3.50;;;2.13;;
9150;SDS011;4610;50.006;7.490;2022-09-24T11:11:35;2.40;;;1.80;;
9150;SDS011;4610;50.006;7.490;2022-09-24T11:14:15;2.40;;;1.90;;
9150;SDS011;4610;50.006;7.490;2022-09-24T11:16:57;3.13;;;1.63;;
9150;SDS011;4610;50.006;7.490;2022-09-24T11:22:30;4.00;;;1.83;;
9150;SDS011;4610;50.006;7.490;2022-09-24T11:25:16;5.93;;;2.07;;
9150;SDS011;4610;50.006;7.490;2022-09-24T11:27:53;3.27;;;1.57;;
9150;SDS011;4610;50.006;7.490;2022-09-24T11:30:28;2.00;;;1.70;;
9150;SDS011;4610;50.006;7.490;2022-09-24T11:33:04;2.63;;;1.77;;
9150;SDS011;4610;50.006;7.490;2022-09-24T11:35:46;7.33;;;1.63;;
9150;SDS011;4610;50.006;7.490;2022-09-24T11:38:26;3.47;;;2.00;;
9150;SDS011;4610;50.006;7.490;2022-09-24T11:41:10;4.63;;;1.70;;
9150;SDS011;4610;50.006;7.490;2022-09-24T11:46:55;5.73;;;1.80;;
9150;SDS011;4610;50.006;7.490;2022-09-24T11:49:40;3.90;;;1.97;;
9150;SDS011;4610;50.006;7.490;2022-09-24T11:52:20;5.00;;;2.10;;
9150;SDS011;4610;50.006;7.490;2022-09-24T11:54:55;2.20;;;1.80;;
9150;SDS011;4610;50.006;7.490;2022-09-24T11:57:28;7.33;;;1.90;;
9150;SDS011;4610;50.006;7.490;2022-09-24T11:59:58;5.37;;;1.90;;
9150;SDS011;4610;50.006;7.490;2022-09-24T12:02:29;4.20;;;2.10;;
9150;SDS011;4610;50.006;7.490;2022-09-24T12:05:00;4.17;;;1.90;;
9150;SDS011;4610;50.006;7.490;2022-09-24T12:07:32;6.80;;;1.90;;
9150;SDS011;4610;50.006;7.490;2022-09-24T12:10:19;4.37;;;2.33;;
9150;SDS011;4610;50.006;7.490;2022-09-24T12:12:56;3.53;;;2.00;;
9150;SDS011;4610;50.006;7.490;2022-09-24T12:15:33;4.47;;;1.80;;
9150;SDS011;4610;50.006;7.490;2022-09-24T12:18:08;4.10;;;2.00;;
9150;SDS011;4610;50.006;7.490;2022-09-24T12:20:43;3.87;;;1.73;;
9150;SDS011;4610;50.006;7.490;2022-09-24T12:23:13;3.17;;;1.80;;
9150;SDS011;4610;50.006;7.490;2022-09-24T12:25:44;2.60;;;2.10;;
9150;SDS011;4610;50.006;7.490;2022-09-24T12:28:14;4.03;;;2.30;;
9150;SDS011;4610;50.006;7.490;2022-09-24T12:31:05;4.40;;;2.27;;
9150;SDS011;4610;50.006;7.490;2022-09-24T12:33:56;3.07;;;2.07;;
9150;SDS011;4610;50.006;7.490;2022-09-24T12:36:34;6.43;;;2.20;;
9150;SDS011;4610;50.006;7.490;2022-09-24T12:39:18;3.20;;;2.20;;
9150;SDS011;4610;50.006;7.490;2022-09-24T12:41:50;4.57;;;2.20;;
9150;SDS011;4610;50.006;7.490;2022-09-24T12:44:27;3.00;;;2.27;;
9150;SDS011;4610;50.006;7.490;2022-09-24T12:46:58;4.73;;;2.40;;
9150;SDS011;4610;50.006;7.490;2022-09-24T12:49:27;3.73;;;2.57;;
9150;SDS011;4610;50.006;7.490;2022-09-24T12:51:58;5.97;;;2.47;;
9150;SDS011;4610;50.006;7.490;2022-09-24T12:54:28;4.53;;;2.27;;
9150;SDS011;4610;50.006;7.490;2022-09-24T12:57:03;5.30;;;2.50;;
9150;SDS011;4610;50.006;7.490;2022-09-24T12:59:46;3.43;;;2.40;;
9150;SDS011;4610;50.006;7.490;2022-09-24T13:02:15;5.23;;;2.50;;
9150;SDS011;4610;50.006;7.490;2022-09-24T13:04:49;6.13;;;2.70;;
9150;SDS011;4610;50.006;7.490;2022-09-24T13:07:28;4.63;;;2.83;;
9150;SDS011;4610;50.006;7.490;2022-09-24T13:09:57;3.50;;;2.47;;
9150;SDS011;4610;50.006;7.490;2022-09-24T13:12:44;3.47;;;3.00;;
9150;SDS011;4610;50.006;7.490;2022-09-24T13:15:18;3.07;;;2.63;;
9150;SDS011;4610;50.006;7.490;2022-09-24T13:17:59;3.93;;;2.80;;
9150;SDS011;4610;50.006;7.490;2022-09-24T13:20:29;6.03;;;3.13;;
9150;SDS011;4610;50.006;7.490;2022-09-24T13:22:57;3.67;;;2.87;;
9150;SDS011;4610;50.006;7.490;2022-09-24T13:25:36;5.57;;;3.10;;
9150;SDS011;4610;50.006;7.490;2022-09-24T13:28:18;8.07;;;2.50;;
9150;SDS011;4610;50.006;7.490;2022-09-24T13:30:48;3.30;;;3.00;;
9150;SDS011;4610;50.006;7.490;2022-09-24T13:33:20;5.03;;;3.00;;
9150;SDS011;4610;50.006;7.490;2022-09-24T13:35:59;5.90;;;3.10;;
9150;SDS011;4610;50.006;7.490;2022-09-24T13:38:32;6.90;;;3.30;;
9150;SDS011;4610;50.006;7.490;2022-09-24T13:41:02;6.07;;;3.33;;
9150;SDS011;4610;50.006;7.490;2022-09-24T13:43:41;5.97;;;3.20;;
9150;SDS011;4610;50.006;7.490;2022-09-24T13:46:13;5.90;;;3.27;;
9150;SDS011;4610;50.006;7.490;2022-09-24T13:48:44;6.30;;;3.63;;
9150;SDS011;4610;50.006;7.490;2022-09-24T13:51:14;10.00;;;3.40;;
9150;SDS011;4610;50.006;7.490;2022-09-24T13:53:46;4.37;;;3.63;;
9150;SDS011;4610;50.006;7.490;2022-09-24T13:56:17;5.33;;;3.43;;
9150;SDS011;4610;50.006;7.490;2022-09-24T13:58:46;5.57;;;3.50;;
9150;SDS011;4610;50.006;7.490;2022-09-24T14:01:17;5.33;;;3.37;;
9150;SDS011;4610;50.006;7.490;2022-09-24T14:03:52;5.07;;;3.53;;
9150;SDS011;4610;50.006;7.490;2022-09-24T14:06:23;4.70;;;3.43;;
9150;SDS011;4610;50.006;7.490;2022-09-24T14:08:58;4.03;;;3.47;;
9150;SDS011;4610;50.006;7.490;2022-09-24T14:11:26;4.40;;;3.60;;
9150;SDS011;4610;50.006;7.490;2022-09-24T14:13:52;6.57;;;3.70;;
9150;SDS011;4610;50.006;7.490;2022-09-24T14:16:22;5.73;;;3.60;;
9150;SDS011;4610;50.006;7.490;2022-09-24T14:18:59;7.07;;;3.90;;
9150;SDS011;4610;50.006;7.490;2022-09-24T14:21:29;4.80;;;3.67;;
9150;SDS011;4610;50.006;7.490;2022-09-24T14:24:00;8.47;;;4.30;;
9150;SDS011;4610;50.006;7.490;2022-09-24T14:26:30;5.50;;;3.73;;
9150;SDS011;4610;50.006;7.490;2022-09-24T14:29:02;6.47;;;3.30;;
9150;SDS011;4610;50.006;7.490;2022-09-24T14:31:41;5.93;;;3.70;;
9150;SDS011;4610;50.006;7.490;2022-09-24T14:34:13;5.93;;;3.37;;
9150;SDS011;4610;50.006;7.490;2022-09-24T14:36:48;4.60;;;3.53;;
9150;SDS011;4610;50.006;7.490;2022-09-24T14:39:16;4.83;;;4.30;;
9150;SDS011;4610;50.006;7.490;2022-09-24T14:41:42;6.13;;;4.57;;
9150;SDS011;4610;50.006;7.490;2022-09-24T14:44:12;7.73;;;4.23;;
9150;SDS011;4610;50.006;7.490;2022-09-24T14:46:47;9.53;;;4.20;;
9150;SDS011;4610;50.006;7.490;2022-09-24T14:49:18;6.20;;;4.50;;
9150;SDS011;4610;50.006;7.490;2022-09-24T14:51:50;9.40;;;4.20;;
9150;SDS011;4610;50.006;7.490;2022-09-24T14:54:19;4.83;;;4.03;;
9150;SDS011;4610;50.006;7.490;2022-09-24T14:57:06;6.50;;;4.27;;
9150;SDS011;4610;50.006;7.490;2022-09-24T14:59:35;7.77;;;4.67;;
9150;SDS011;4610;50.006;7.490;2022-09-24T15:02:05;6.27;;;4.83;;
9150;SDS011;4610;50.006;7.490;2022-09-24T15:04:42;6.73;;;4.83;;
9150;SDS011;4610;50.006;7.490;2022-09-24T15:07:13;6.97;;;4.50;;
9150;SDS011;4610;50.006;7.490;2022-09-24T15:09:41;10.23;;;5.80;;
9150;SDS011;4610;50.006;7.490;2022-09-24T15:12:09;8.93;;;5.20;;
9150;SDS011;4610;50.006;7.490;2022-09-24T15:14:52;5.97;;;4.00;;
9150;SDS011;4610;50.006;7.490;2022-09-24T15:17:22;5.17;;;3.60;;
9150;SDS011;4610;50.006;7.490;2022-09-24T15:19:50;4.87;;;3.60;;
9150;SDS011;4610;50.006;7.490;2022-09-24T15:22:20;5.77;;;4.30;;
9150;SDS011;4610;50.006;7.490;2022-09-24T15:24:47;6.43;;;3.73;;
9150;SDS011;4610;50.006;7.490;2022-09-24T15:27:14;7.03;;;4.30;;
9150;SDS011;4610;50.006;7.490;2022-09-24T15:29:44;5.47;;;3.80;;
9150;SDS011;4610;50.006;7.490;2022-09-24T15:32:13;5.73;;;3.57;;
9150;SDS011;4610;50.006;7.490;2022-09-24T15:34:42;7.23;;;3.17;;
9150;SDS011;4610;50.006;7.490;2022-09-24T15:37:10;4.77;;;3.70;;
9150;SDS011;4610;50.006;7.490;2022-09-24T15:39:38;7.97;;;3.97;;
9150;SDS011;4610;50.006;7.490;2022-09-24T15:42:10;5.10;;;3.60;;
9150;SDS011;4610;50.006;7.490;2022-09-24T15:44:37;3.70;;;3.00;;
9150;SDS011;4610;50.006;7.490;2022-09-24T15:47:03;4.80;;;3.27;;
9150;SDS011;4610;50.006;7.490;2022-09-24T15:49:30;6.43;;;3.50;;